createdAt,value
2018-09-05T00:00:08.092Z,9.03
2018-09-05T00:02:36.256Z,12.53
2018-09-05T00:05:04.479Z,8.63
2018-09-05T00:07:32.672Z,8.73
2018-09-05T00:10:00.861Z,10.13
2018-09-05T00:12:29.023Z,10.33
2018-09-05T00:14:57.229Z,10.37
2018-09-05T00:17:25.455Z,10.57
2018-09-05T00:19:53.628Z,12.07
2018-09-05T00:22:21.811Z,8.33
2018-09-05T00:24:50.007Z,8.30
2018-09-05T00:27:18.175Z,8.23
2018-09-05T00:29:46.457Z,12.30
2018-09-05T00:32:14.613Z,11.30
2018-09-05T00:34:42.823Z,9.63
2018-09-05T00:37:11.028Z,11.50
2018-09-05T00:39:39.234Z,9.27
2018-09-05T00:42:07.447Z,10.50
2018-09-05T00:44:35.637Z,11.03
2018-09-05T00:47:03.838Z,8.30
2018-09-05T00:49:32.015Z,8.07
2018-09-05T00:52:00.188Z,7.97
2018-09-05T00:54:28.400Z,7.90
2018-09-05T00:56:56.665Z,10.13
2018-09-05T00:59:26.454Z,9.60
2018-09-05T01:01:54.627Z,9.40
2018-09-05T01:04:22.912Z,13.27
2018-09-05T01:06:51.172Z,9.67
2018-09-05T01:09:19.394Z,7.80
2018-09-05T01:11:47.640Z,9.40
2018-09-05T01:14:15.858Z,8.50
2018-09-05T01:16:44.035Z,7.73
2018-09-05T01:19:12.221Z,8.43
2018-09-05T01:21:40.404Z,7.00
2018-09-05T01:24:08.733Z,8.03
2018-09-05T01:26:36.980Z,9.93
2018-09-05T01:29:05.216Z,7.33
2018-09-05T01:31:33.411Z,7.60
2018-09-05T01:34:01.607Z,8.23
2018-09-05T01:36:29.783Z,11.47
2018-09-05T01:38:58.016Z,8.23
2018-09-05T01:41:26.220Z,8.53
2018-09-05T01:43:54.394Z,8.27
2018-09-05T01:46:22.560Z,7.43
2018-09-05T01:48:50.849Z,8.93
2018-09-05T01:51:19.036Z,8.40
2018-09-05T01:53:47.298Z,8.60
2018-09-05T01:56:15.474Z,11.37
2018-09-05T01:58:43.787Z,9.67
2018-09-05T02:01:11.975Z,10.70
2018-09-05T02:03:40.144Z,12.87
2018-09-05T02:06:08.369Z,12.13
2018-09-05T02:08:36.557Z,10.93
2018-09-05T02:11:04.667Z,9.30
2018-09-05T02:13:32.871Z,8.80
2018-09-05T02:16:01.084Z,9.97
2018-09-05T02:18:29.284Z,7.93
2018-09-05T02:20:57.505Z,9.87
2018-09-05T02:23:25.730Z,7.03
2018-09-05T02:25:53.911Z,11.43
2018-09-05T02:28:22.107Z,7.37
2018-09-05T02:30:50.316Z,10.83
2018-09-05T02:33:18.492Z,8.70
2018-09-05T02:35:46.691Z,9.47
2018-09-05T02:38:14.867Z,9.90
2018-09-05T02:40:43.038Z,9.03
2018-09-05T02:43:11.251Z,7.77
2018-09-05T02:45:39.458Z,11.10
2018-09-05T02:48:07.608Z,8.50
2018-09-05T02:50:35.780Z,7.83
2018-09-05T02:53:04.008Z,8.00
2018-09-05T02:56:06.994Z,10.43
2018-09-05T02:58:35.848Z,8.60
2018-09-05T03:01:04.055Z,8.80
2018-09-05T03:03:32.275Z,11.23
2018-09-05T03:06:00.467Z,8.30
2018-09-05T03:08:28.656Z,7.30
2018-09-05T03:10:56.872Z,10.13
2018-09-05T03:13:25.038Z,12.70
2018-09-05T03:15:53.243Z,9.07
2018-09-05T03:18:21.480Z,9.80
2018-09-05T03:20:49.673Z,9.63
2018-09-05T03:23:17.928Z,9.27
2018-09-05T03:25:46.221Z,7.77
2018-09-05T03:28:14.498Z,9.57
2018-09-05T03:30:42.716Z,6.93
2018-09-05T03:33:10.996Z,11.37
2018-09-05T03:35:39.189Z,9.70
2018-09-05T03:38:07.422Z,10.13
2018-09-05T03:40:35.624Z,9.17
2018-09-05T03:43:03.815Z,10.80
2018-09-05T03:45:32.001Z,15.93
2018-09-05T03:48:00.194Z,13.80
2018-09-05T03:50:28.696Z,14.13
2018-09-05T03:52:56.884Z,8.27
2018-09-05T03:55:25.064Z,13.73
2018-09-05T03:57:53.260Z,9.00
2018-09-05T04:00:21.401Z,9.97
2018-09-05T04:02:49.593Z,11.87
2018-09-05T04:05:17.813Z,8.03
2018-09-05T04:07:46.003Z,11.07
2018-09-05T04:10:14.226Z,9.50
2018-09-05T04:12:42.754Z,7.63
2018-09-05T04:15:11.686Z,8.20
2018-09-05T04:17:39.891Z,9.03
2018-09-05T04:20:09.516Z,8.43
2018-09-05T04:22:37.687Z,9.40
2018-09-05T04:25:05.925Z,9.57
2018-09-05T04:27:34.118Z,8.63
2018-09-05T04:30:02.303Z,16.00
2018-09-05T04:32:30.483Z,10.90
2018-09-05T04:34:58.688Z,11.20
2018-09-05T04:37:26.873Z,8.80
2018-09-05T04:39:55.051Z,11.70
2018-09-05T04:42:23.291Z,9.13
2018-09-05T04:44:51.523Z,10.67
2018-09-05T04:47:19.692Z,9.17
2018-09-05T04:49:47.947Z,9.70
2018-09-05T04:52:16.135Z,10.83
2018-09-05T04:54:44.331Z,11.63
2018-09-05T04:57:12.523Z,13.17
2018-09-05T04:59:42.200Z,8.60
2018-09-05T05:02:10.463Z,7.93
2018-09-05T05:04:38.896Z,7.23
2018-09-05T05:07:07.090Z,7.60
2018-09-05T05:09:35.268Z,7.77
2018-09-05T05:12:03.480Z,9.47
2018-09-05T05:14:31.675Z,7.80
2018-09-05T05:17:00.144Z,7.00
2018-09-05T05:19:28.298Z,12.20
2018-09-05T05:21:56.520Z,7.87
2018-09-05T05:24:24.683Z,10.57
2018-09-05T05:26:52.893Z,9.23
2018-09-05T05:29:22.238Z,10.30
2018-09-05T05:31:50.513Z,11.03
2018-09-05T05:34:19.025Z,9.17
2018-09-05T05:36:47.226Z,7.20
2018-09-05T05:39:15.347Z,8.17
2018-09-05T05:41:43.555Z,7.50
2018-09-05T05:44:11.760Z,8.93
2018-09-05T05:46:39.972Z,8.73
2018-09-05T05:49:08.180Z,9.67
2018-09-05T05:51:36.363Z,7.77
2018-09-05T05:54:04.572Z,8.20
2018-09-05T05:56:32.734Z,8.03
2018-09-05T05:59:00.939Z,9.93
2018-09-05T06:01:29.223Z,8.97
2018-09-05T06:03:57.369Z,7.93
2018-09-05T06:06:25.648Z,9.90
2018-09-05T06:08:53.769Z,8.97
2018-09-05T06:11:21.907Z,8.00
2018-09-05T06:13:50.105Z,7.90
2018-09-05T06:16:18.288Z,10.17
2018-09-05T06:18:46.459Z,8.07
2018-09-05T06:21:14.790Z,9.97
2018-09-05T06:23:42.996Z,8.10
2018-09-05T06:26:11.280Z,8.63
2018-09-05T06:28:39.476Z,8.73
2018-09-05T06:31:07.845Z,7.97
2018-09-05T06:33:35.894Z,7.60
2018-09-05T06:36:04.456Z,8.33
2018-09-05T06:38:32.668Z,7.90
2018-09-05T06:41:00.950Z,8.23
2018-09-05T06:43:29.087Z,7.47
2018-09-05T06:45:57.307Z,7.73
2018-09-05T06:48:25.496Z,7.53
2018-09-05T06:50:58.975Z,8.07
2018-09-05T06:53:27.182Z,7.03
2018-09-05T06:55:55.405Z,8.93
2018-09-05T06:58:23.731Z,8.13
2018-09-05T07:00:51.839Z,8.47
2018-09-05T07:03:20.124Z,8.37
2018-09-05T07:05:48.647Z,8.23
2018-09-05T07:08:16.815Z,8.30
2018-09-05T07:10:45.024Z,7.90
2018-09-05T07:13:13.311Z,10.30
2018-09-05T07:15:41.513Z,7.77
2018-09-05T07:18:09.760Z,7.77
2018-09-05T07:20:37.975Z,7.07
2018-09-05T07:23:06.368Z,7.33
2018-09-05T07:25:34.608Z,8.50
2018-09-05T07:28:02.855Z,11.17
2018-09-05T07:30:31.122Z,8.57
2018-09-05T07:32:59.267Z,7.37
2018-09-05T07:35:27.544Z,7.43
2018-09-05T07:37:55.728Z,8.17
2018-09-05T07:40:23.892Z,8.60
2018-09-05T07:42:52.120Z,9.30
2018-09-05T07:45:20.434Z,6.87
2018-09-05T07:47:48.675Z,9.20
2018-09-05T07:50:16.835Z,7.07
2018-09-05T07:52:44.989Z,7.07
2018-09-05T07:55:13.183Z,10.27
2018-09-05T07:57:41.413Z,6.90
2018-09-05T08:00:09.617Z,7.60
2018-09-05T08:02:37.894Z,7.30
2018-09-05T08:05:06.051Z,7.23
2018-09-05T08:07:34.320Z,6.70
2018-09-05T08:10:02.565Z,7.00
2018-09-05T08:12:30.725Z,6.50
2018-09-05T08:14:59.048Z,7.83
2018-09-05T08:17:27.245Z,7.93
2018-09-05T08:19:55.449Z,7.60
2018-09-05T08:22:23.668Z,7.77
2018-09-05T08:24:51.835Z,8.27
2018-09-05T08:27:23.196Z,7.90
2018-09-05T08:29:52.559Z,8.43
2018-09-05T08:32:20.948Z,9.27
2018-09-05T08:34:49.460Z,9.27
2018-09-05T08:37:17.789Z,8.87
2018-09-05T08:39:45.911Z,8.63
2018-09-05T08:42:14.524Z,8.33
2018-09-05T08:44:42.784Z,8.47
2018-09-05T08:47:10.891Z,7.63
2018-09-05T08:49:39.068Z,9.93
2018-09-05T08:52:07.310Z,9.60
2018-09-05T08:54:35.529Z,7.53
2018-09-05T08:57:03.803Z,7.50
2018-09-05T08:59:33.705Z,7.43
2018-09-05T09:02:01.865Z,8.33
2018-09-05T09:04:31.090Z,8.27
2018-09-05T09:06:59.264Z,9.30
2018-09-05T09:09:27.458Z,8.97
2018-09-05T09:11:55.720Z,9.07
2018-09-05T09:14:23.973Z,8.33
2018-09-05T09:16:52.206Z,8.10
2018-09-05T09:19:20.373Z,8.73
2018-09-05T09:21:48.577Z,8.40
2018-09-05T09:24:16.760Z,9.67
2018-09-05T09:26:45.051Z,7.97
2018-09-05T09:29:13.492Z,8.23
2018-09-05T09:31:41.724Z,8.60
2018-09-05T09:34:09.930Z,7.57
2018-09-05T09:36:38.147Z,7.70
2018-09-05T09:39:08.201Z,8.37
2018-09-05T09:41:36.416Z,8.23
2018-09-05T09:44:04.643Z,8.37
2018-09-05T09:46:32.835Z,8.90
2018-09-05T09:49:01.060Z,8.63
2018-09-05T09:51:29.299Z,10.37
2018-09-05T09:53:57.497Z,10.17
2018-09-05T09:56:25.687Z,8.30
2018-09-05T09:58:53.889Z,8.23
2018-09-05T10:01:27.488Z,8.00
2018-09-05T10:04:01.026Z,7.90
2018-09-05T10:06:34.673Z,7.47
2018-09-05T10:09:08.101Z,8.70
2018-09-05T10:11:41.652Z,8.77
2018-09-05T10:14:10.659Z,7.37
2018-09-05T10:16:44.358Z,7.83
2018-09-05T10:19:12.929Z,8.33
2018-09-05T10:21:41.093Z,8.27
2018-09-05T10:24:09.297Z,7.60
2018-09-05T10:26:37.449Z,7.33
2018-09-05T10:29:05.627Z,7.40
2018-09-05T10:31:33.842Z,6.73
2018-09-05T10:34:02.032Z,8.03
2018-09-05T10:36:30.268Z,7.70
2018-09-05T10:38:58.490Z,8.50
2018-09-05T10:41:26.689Z,7.00
2018-09-05T10:43:54.904Z,7.30
2018-09-05T10:46:23.124Z,11.03
2018-09-05T10:48:51.361Z,6.90
2018-09-05T10:51:23.794Z,7.97
2018-09-05T10:53:51.975Z,8.67
2018-09-05T10:56:20.168Z,6.90
2018-09-05T10:58:48.361Z,8.37
2018-09-05T11:01:16.657Z,7.33
2018-09-05T11:03:44.852Z,10.60
2018-09-05T11:06:12.999Z,6.93
2018-09-05T11:08:41.195Z,7.53
2018-09-05T11:11:09.404Z,7.30
2018-09-05T11:13:37.602Z,7.53
2018-09-05T11:16:05.792Z,7.73
2018-09-05T11:18:33.992Z,7.30
2018-09-05T11:21:02.195Z,7.03
2018-09-05T11:23:30.412Z,8.30
2018-09-05T11:25:58.616Z,6.70
2018-09-05T11:28:26.793Z,8.73
2018-09-05T11:30:54.997Z,7.57
2018-09-05T11:33:23.152Z,7.50
2018-09-05T11:35:51.428Z,6.70
2018-09-05T11:38:19.612Z,7.43
2018-09-05T11:40:47.824Z,6.83
2018-09-05T11:43:15.960Z,8.50
2018-09-05T11:45:44.168Z,7.77
2018-09-05T11:48:12.364Z,6.53
2018-09-05T11:50:40.509Z,6.57
2018-09-05T11:53:08.736Z,7.60
2018-09-05T11:55:36.927Z,8.10
2018-09-05T11:58:05.254Z,6.93
2018-09-05T12:00:33.488Z,7.13
2018-09-05T12:03:01.756Z,7.40
2018-09-05T12:05:29.932Z,7.90
2018-09-05T12:07:58.147Z,7.00
2018-09-05T12:10:26.385Z,7.07
2018-09-05T12:12:54.589Z,8.13
2018-09-05T12:15:22.832Z,7.93
2018-09-05T12:24:49.924Z,7.53
2018-09-05T12:27:18.167Z,8.00
2018-09-05T12:29:46.880Z,8.47
2018-09-05T12:32:15.118Z,8.07
2018-09-05T12:34:43.311Z,7.83
2018-09-05T12:37:11.517Z,8.53
2018-09-05T12:39:39.727Z,8.50
2018-09-05T12:42:07.967Z,7.67
2018-09-05T12:44:36.243Z,8.30
2018-09-05T12:47:04.431Z,6.90
2018-09-05T12:49:32.632Z,8.63
2018-09-05T12:52:00.866Z,7.97
2018-09-05T12:54:29.037Z,7.23
2018-09-05T12:56:57.221Z,9.67
2018-09-05T12:59:27.020Z,8.30
2018-09-05T13:01:55.207Z,8.17
2018-09-05T13:04:23.435Z,7.43
2018-09-05T13:06:51.567Z,8.17
2018-09-05T13:09:19.705Z,8.33
2018-09-05T13:11:47.968Z,7.43
2018-09-05T13:14:16.183Z,6.57
2018-09-05T13:16:44.369Z,7.30
2018-09-05T13:19:12.515Z,7.83
2018-09-05T13:21:40.809Z,7.60
2018-09-05T13:24:09.307Z,7.77
2018-09-05T13:26:37.540Z,8.67
2018-09-05T13:29:05.763Z,7.03
2018-09-05T13:31:33.951Z,8.90
2018-09-05T13:34:02.211Z,7.53
2018-09-05T13:36:30.464Z,8.10
2018-09-05T13:38:58.692Z,6.97
2018-09-05T13:41:26.946Z,7.83
2018-09-05T13:43:55.140Z,7.33
2018-09-05T13:46:23.304Z,7.40
2018-09-05T13:48:51.476Z,7.00
2018-09-05T13:51:19.711Z,6.40
2018-09-05T13:53:47.890Z,9.57
2018-09-05T13:56:16.086Z,6.63
2018-09-05T13:58:44.314Z,6.43
2018-09-05T14:01:12.515Z,6.13
2018-09-05T14:03:40.709Z,6.67
2018-09-05T14:06:08.971Z,7.07
2018-09-05T14:08:37.175Z,6.20
2018-09-05T14:11:05.352Z,5.73
2018-09-05T14:13:33.574Z,6.73
2018-09-05T14:16:01.755Z,6.17
2018-09-05T14:18:29.974Z,7.47
2018-09-05T14:20:58.284Z,5.93
2018-09-05T14:23:26.493Z,6.20
2018-09-05T14:25:54.715Z,5.80
2018-09-05T14:28:22.933Z,5.63
2018-09-05T14:30:51.135Z,6.43
2018-09-05T14:33:19.507Z,6.87
2018-09-05T14:35:47.691Z,6.90
2018-09-05T14:38:15.869Z,5.50
2018-09-05T14:40:45.448Z,6.47
2018-09-05T14:43:13.593Z,6.00
2018-09-05T14:45:41.766Z,6.20
2018-09-05T14:48:09.960Z,5.87
2018-09-05T14:50:38.143Z,10.87
2018-09-05T14:53:06.301Z,5.50
2018-09-05T14:55:34.444Z,5.30
2018-09-05T14:58:02.715Z,5.27
2018-09-05T15:00:30.882Z,6.83
2018-09-05T15:02:59.127Z,5.33
2018-09-05T15:05:27.322Z,5.93
2018-09-05T15:07:55.472Z,5.97
2018-09-05T15:10:23.668Z,5.60
2018-09-05T15:12:51.896Z,5.60
2018-09-05T15:15:20.148Z,5.60
2018-09-05T15:17:48.455Z,5.73
2018-09-05T15:20:16.594Z,6.30
2018-09-05T15:22:44.836Z,7.23
2018-09-05T15:25:13.032Z,5.73
2018-09-05T15:27:41.204Z,5.57
2018-09-05T15:30:09.850Z,5.67
2018-09-05T15:32:38.018Z,5.57
2018-09-05T15:35:06.494Z,5.87
2018-09-05T15:37:34.713Z,5.47
2018-09-05T15:40:02.962Z,5.53
2018-09-05T15:42:31.180Z,5.50
2018-09-05T15:44:59.359Z,8.10
2018-09-05T15:47:27.578Z,5.60
2018-09-05T15:49:55.884Z,6.30
2018-09-05T15:52:24.096Z,5.77
2018-09-05T15:54:52.596Z,5.83
2018-09-05T15:57:20.774Z,6.40
2018-09-05T15:59:49.120Z,6.27
2018-09-05T16:02:17.320Z,5.63
2018-09-05T16:04:45.524Z,6.07
2018-09-05T16:07:13.696Z,6.37
2018-09-05T16:09:41.881Z,5.77
2018-09-05T16:12:10.068Z,6.53
2018-09-05T16:14:38.264Z,6.10
2018-09-05T16:17:06.744Z,6.50
2018-09-05T16:19:34.964Z,6.67
2018-09-05T16:22:03.125Z,7.70
2018-09-05T16:24:31.343Z,6.50
2018-09-05T16:26:59.524Z,6.07
2018-09-05T16:29:29.187Z,6.43
2018-09-05T16:31:57.492Z,5.73
2018-09-05T16:34:25.717Z,5.47
2018-09-05T16:36:53.919Z,6.47
2018-09-05T16:39:22.197Z,5.33
2018-09-05T16:41:50.430Z,6.03
2018-09-05T16:44:18.642Z,6.70
2018-09-05T16:46:46.836Z,5.60
2018-09-05T16:49:15.032Z,6.53
2018-09-05T16:51:43.213Z,5.43
2018-09-05T16:54:11.418Z,5.67
2018-09-05T16:56:39.623Z,5.63
2018-09-05T16:59:07.851Z,5.20
2018-09-05T17:01:36.123Z,5.90
2018-09-05T17:04:04.464Z,6.67
2018-09-05T17:06:32.618Z,6.67
2018-09-05T17:09:00.811Z,6.40
2018-09-05T17:11:29.076Z,6.83
2018-09-05T17:13:57.251Z,6.53
2018-09-05T17:16:25.442Z,5.73
2018-09-05T17:18:53.609Z,6.23
2018-09-05T17:21:21.786Z,5.33
2018-09-05T17:23:49.969Z,5.80
2018-09-05T17:26:18.192Z,5.43
2018-09-05T17:28:46.398Z,5.07
2018-09-05T17:31:14.563Z,5.07
2018-09-05T17:33:42.736Z,5.83
2018-09-05T17:36:10.903Z,7.17
2018-09-05T17:38:39.136Z,6.13
2018-09-05T17:41:07.662Z,6.00
2018-09-05T17:43:35.867Z,6.43
2018-09-05T17:46:04.079Z,5.87
2018-09-05T17:48:32.260Z,7.77
2018-09-05T17:51:00.420Z,5.75
2018-09-05T17:53:28.684Z,7.57
2018-09-05T17:55:56.864Z,6.00
2018-09-05T17:58:25.076Z,5.90
2018-09-05T18:00:53.354Z,4.43
2018-09-05T18:03:21.864Z,6.07
2018-09-05T18:05:50.136Z,4.77
2018-09-05T18:08:18.415Z,5.27
2018-09-05T18:10:46.522Z,4.57
2018-09-05T18:13:14.792Z,5.80
2018-09-05T18:15:43.136Z,4.37
2018-09-05T18:18:11.275Z,4.57
2018-09-05T18:20:39.519Z,4.70
2018-09-05T18:23:07.752Z,5.87
2018-09-05T18:25:35.967Z,4.87
2018-09-05T18:28:04.223Z,4.47
2018-09-05T18:30:32.440Z,4.60
2018-09-05T18:33:00.605Z,5.10
2018-09-05T18:35:28.858Z,4.70
2018-09-05T18:37:57.019Z,4.37
2018-09-05T18:40:25.297Z,5.03
2018-09-05T18:42:53.453Z,4.53
2018-09-05T18:45:21.665Z,7.30
2018-09-05T18:47:49.816Z,5.13
2018-09-05T18:50:18.124Z,4.00
2018-09-05T18:52:46.334Z,4.43
2018-09-05T18:55:14.536Z,4.27
2018-09-05T18:57:42.694Z,4.27
2018-09-05T19:00:10.856Z,4.37
2018-09-05T19:02:39.083Z,4.50
2018-09-05T19:05:08.044Z,4.20
2018-09-05T19:07:36.205Z,4.83
2018-09-05T19:10:04.480Z,5.03
2018-09-05T19:12:32.663Z,4.77
2018-09-05T19:15:00.857Z,4.80
2018-09-05T19:17:29.063Z,4.27
2018-09-05T19:19:57.627Z,7.17
2018-09-05T19:22:25.860Z,5.00
2018-09-05T19:24:54.131Z,5.60
2018-09-05T19:27:22.533Z,5.30
2018-09-05T19:29:51.024Z,4.13
2018-09-05T19:32:19.210Z,4.30
2018-09-05T19:34:47.360Z,4.67
2018-09-05T19:37:15.688Z,5.07
2018-09-05T19:39:43.868Z,4.60
2018-09-05T19:42:12.130Z,3.97
2018-09-05T19:44:40.319Z,4.57
2018-09-05T19:47:08.515Z,5.00
2018-09-05T19:49:36.711Z,4.33
2018-09-05T19:52:05.006Z,5.20
2018-09-05T19:54:33.234Z,5.00
2018-09-05T19:57:01.435Z,5.93
2018-09-05T19:59:31.520Z,4.93
2018-09-05T20:01:59.808Z,4.40
2018-09-05T20:04:28.021Z,4.87
2018-09-05T20:11:43.733Z,4.63
2018-09-05T20:14:11.916Z,4.90
2018-09-05T20:16:40.109Z,4.67
2018-09-05T20:19:08.291Z,5.23
2018-09-05T20:21:36.500Z,6.20
2018-09-05T20:24:04.670Z,5.83
2018-09-05T20:26:32.872Z,4.80
2018-09-05T20:29:01.053Z,4.90
2018-09-05T20:31:29.264Z,5.93
2018-09-05T20:33:57.472Z,6.87
2018-09-05T20:37:28.980Z,5.43
2018-09-05T20:39:57.271Z,5.23
2018-09-05T20:42:25.548Z,5.10
2018-09-05T20:44:53.848Z,6.07
2018-09-05T20:47:22.086Z,5.30
2018-09-05T20:49:50.291Z,4.40
2018-09-05T20:52:18.616Z,4.80
2018-09-05T20:54:46.700Z,4.70
2018-09-05T20:57:14.895Z,4.97
2018-09-05T20:59:43.723Z,5.03
2018-09-05T21:02:11.888Z,5.33
2018-09-05T21:04:40.091Z,4.37
2018-09-05T21:07:08.317Z,5.07
2018-09-05T21:09:36.556Z,5.53
2018-09-05T21:12:04.921Z,4.57
2018-09-05T21:14:33.153Z,4.90
2018-09-05T21:17:01.576Z,5.77
2018-09-05T21:19:29.722Z,5.50
2018-09-05T21:21:57.919Z,6.50
2018-09-05T21:24:26.169Z,6.43
2018-09-05T21:26:54.524Z,5.70
2018-09-05T21:29:24.669Z,5.17
2018-09-05T21:31:52.936Z,6.43
2018-09-05T21:34:21.216Z,7.27
2018-09-05T21:36:49.384Z,6.40
2018-09-05T21:39:17.540Z,5.57
2018-09-05T21:41:45.702Z,6.23
2018-09-05T21:44:13.867Z,6.27
2018-09-05T21:46:42.051Z,5.90
2018-09-05T21:49:10.231Z,6.70
2018-09-05T21:51:38.417Z,7.53
2018-09-05T21:54:06.623Z,9.17
2018-09-05T21:56:34.799Z,7.33
2018-09-05T21:59:02.940Z,7.67
2018-09-05T22:01:31.147Z,7.33
2018-09-05T22:03:59.287Z,7.97
2018-09-05T22:06:27.504Z,8.20
2018-09-05T22:08:55.733Z,7.93
2018-09-05T22:11:23.991Z,7.33
2018-09-05T22:13:52.342Z,8.97
2018-09-05T22:16:20.521Z,8.57
2018-09-05T22:18:48.741Z,7.63
2018-09-05T22:21:16.916Z,8.43
2018-09-05T22:23:45.091Z,8.20
2018-09-05T22:26:13.243Z,8.30
2018-09-05T22:28:41.400Z,8.53
2018-09-05T22:31:09.549Z,9.67
2018-09-05T22:33:37.784Z,9.93
2018-09-05T22:36:06.046Z,9.77
2018-09-05T22:38:34.321Z,8.83
2018-09-05T22:41:02.499Z,8.97
2018-09-05T22:43:42.087Z,8.90
2018-09-05T22:46:21.998Z,9.40
2018-09-05T22:52:12.711Z,11.40
2018-09-05T22:56:15.136Z,8.83
2018-09-05T22:58:54.060Z,10.33
2018-09-05T23:03:49.116Z,10.77
2018-09-05T23:06:32.480Z,11.30
2018-09-05T23:09:00.673Z,12.10
2018-09-05T23:11:43.805Z,14.40
2018-09-05T23:14:51.773Z,13.10
2018-09-05T23:17:35.307Z,11.67
2018-09-05T23:21:22.085Z,18.00
2018-09-05T23:23:58.549Z,12.23
2018-09-05T23:26:27.058Z,14.53
2018-09-05T23:28:55.227Z,13.60
2018-09-05T23:31:23.814Z,15.77
2018-09-05T23:33:52.396Z,14.40
2018-09-05T23:36:20.980Z,17.17
2018-09-05T23:38:49.207Z,14.13
2018-09-05T23:41:17.409Z,14.63
2018-09-05T23:43:45.669Z,14.00
2018-09-05T23:46:13.999Z,14.33
2018-09-05T23:48:42.184Z,14.37
2018-09-05T23:51:10.362Z,15.47
2018-09-05T23:53:38.585Z,15.63
2018-09-05T23:56:06.852Z,15.03
2018-09-05T23:58:35.050Z,15.50
